sensor_id;sensor_type;location;lat;lon;timestamp;pressure;altitude;pressure_sealevel;temperature;humidity
61645;BME280;47553;52.428;13.382;2022-07-29T00:01:14;101394.19;;;15.97;57.54
61645;BME280;47553;52.428;13.382;2022-07-29T00:03:20;101393.75;;;15.91;57.67
61645;BME280;47553;52.428;13.382;2022-07-29T00:05:21;101398.91;;;15.94;57.86
61645;BME280;47553;52.428;13.382;2022-07-29T00:07:23;101394.41;;;15.94;57.74
61645;BME280;47553;52.428;13.382;2022-07-29T00:09:26;101398.91;;;15.94;57.64
61645;BME280;47553;52.428;13.382;2022-07-29T00:11:27;101390.31;;;15.89;58.06
61645;BME280;47553;52.428;13.382;2022-07-29T00:13:29;101390.94;;;15.92;57.99
61645;BME280;47553;52.428;13.382;2022-07-29T00:15:33;101389.00;;;15.94;58.02
61645;BME280;47553;52.428;13.382;2022-07-29T00:17:34;101388.38;;;15.91;58.23
61645;BME280;47553;52.428;13.382;2022-07-29T00:19:36;101392.56;;;15.82;58.32
61645;BME280;47553;52.428;13.382;2022-07-29T00:21:37;101378.38;;;15.80;58.62
61645;BME280;47553;52.428;13.382;2022-07-29T00:23:39;101377.72;;;15.76;58.77
61645;BME280;47553;52.428;13.382;2022-07-29T00:25:42;101376.75;;;15.77;59.00
61645;BME280;47553;52.428;13.382;2022-07-29T00:27:43;101377.81;;;15.75;59.12
61645;BME280;47553;52.428;13.382;2022-07-29T00:29:45;101380.72;;;15.72;59.24
61645;BME280;47553;52.428;13.382;2022-07-29T00:31:47;101377.06;;;15.73;59.49
61645;BME280;47553;52.428;13.382;2022-07-29T00:33:48;101381.47;;;15.74;59.45
61645;BME280;47553;52.428;13.382;2022-07-29T00:35:50;101375.78;;;15.66;59.80
61645;BME280;47553;52.428;13.382;2022-07-29T00:37:53;101380.94;;;15.69;59.70
61645;BME280;47553;52.428;13.382;2022-07-29T00:39:55;101388.44;;;15.64;59.94
61645;BME280;47553;52.428;13.382;2022-07-29T00:41:57;101379.59;;;15.62;60.19
61645;BME280;47553;52.428;13.382;2022-07-29T00:43:59;101363.78;;;15.44;60.50
61645;BME280;47553;52.428;13.382;2022-07-29T00:46:01;101370.03;;;15.45;60.74
61645;BME280;47553;52.428;13.382;2022-07-29T00:48:03;101383.16;;;15.49;60.86
61645;BME280;47553;52.428;13.382;2022-07-29T00:50:06;101372.59;;;15.46;61.00
61645;BME280;47553;52.428;13.382;2022-07-29T00:52:09;101375.28;;;15.46;60.90
61645;BME280;47553;52.428;13.382;2022-07-29T00:54:12;101372.41;;;15.49;61.14
61645;BME280;47553;52.428;13.382;2022-07-29T00:56:14;101370.78;;;15.47;61.34
61645;BME280;47553;52.428;13.382;2022-07-29T00:58:17;101365.50;;;15.45;61.46
61645;BME280;47553;52.428;13.382;2022-07-29T01:00:20;101365.50;;;15.45;61.62
61645;BME280;47553;52.428;13.382;2022-07-29T01:02:22;101363.13;;;15.41;61.90
61645;BME280;47553;52.428;13.382;2022-07-29T01:04:24;101361.72;;;15.35;62.25
61645;BME280;47553;52.428;13.382;2022-07-29T01:06:26;101357.09;;;15.37;62.31
61645;BME280;47553;52.428;13.382;2022-07-29T01:08:28;101364.41;;;15.35;62.58
61645;BME280;47553;52.428;13.382;2022-07-29T01:10:30;101358.34;;;15.32;62.74
61645;BME280;47553;52.428;13.382;2022-07-29T01:12:32;101360.28;;;15.30;62.73
61645;BME280;47553;52.428;13.382;2022-07-29T01:14:37;101364.69;;;15.31;63.04
61645;BME280;47553;52.428;13.382;2022-07-29T01:16:44;101352.31;;;15.28;63.20
61645;BME280;47553;52.428;13.382;2022-07-29T01:18:49;101359.94;;;15.21;63.65
61645;BME280;47553;52.428;13.382;2022-07-29T01:21:21;101356.06;;;15.13;64.09
61645;BME280;47553;52.428;13.382;2022-07-29T01:23:40;101349.41;;;15.18;64.05
61645;BME280;47553;52.428;13.382;2022-07-29T01:25:54;101342.63;;;15.13;64.29
61645;BME280;47553;52.428;13.382;2022-07-29T01:28:08;101338.97;;;15.14;64.45
61645;BME280;47553;52.428;13.382;2022-07-29T01:30:17;101337.47;;;15.10;64.70
61645;BME280;47553;52.428;13.382;2022-07-29T01:32:20;101323.06;;;15.11;64.62
61645;BME280;47553;52.428;13.382;2022-07-29T01:34:37;101315.41;;;15.05;65.05
61645;BME280;47553;52.428;13.382;2022-07-29T01:36:45;101311.00;;;15.04;64.91
61645;BME280;47553;52.428;13.382;2022-07-29T01:38:54;101309.50;;;15.00;65.26
61645;BME280;47553;52.428;13.382;2022-07-29T01:41:05;101293.44;;;14.85;65.80
61645;BME280;47553;52.428;13.382;2022-07-29T01:43:11;101294.84;;;14.91;65.85
61645;BME280;47553;52.428;13.382;2022-07-29T01:45:16;101288.19;;;14.84;66.44
61645;BME280;47553;52.428;13.382;2022-07-29T01:47:23;101284.63;;;14.83;66.52
61645;BME280;47553;52.428;13.382;2022-07-29T01:49:29;101289.81;;;14.86;66.69
61645;BME280;47553;52.428;13.382;2022-07-29T01:51:35;101289.25;;;14.81;67.00
61645;BME280;47553;52.428;13.382;2022-07-29T01:53:45;101268.28;;;14.74;67.04
61645;BME280;47553;52.428;13.382;2022-07-29T01:55:48;101285.16;;;14.76;67.16
61645;BME280;47553;52.428;13.382;2022-07-29T01:57:51;101277.94;;;14.76;67.26
61645;BME280;47553;52.428;13.382;2022-07-29T01:59:54;101272.69;;;14.75;67.45
61645;BME280;47553;52.428;13.382;2022-07-29T02:01:59;101277.41;;;14.71;67.72
61645;BME280;47553;52.428;13.382;2022-07-29T02:04:03;101276.66;;;14.69;67.77
61645;BME280;47553;52.428;13.382;2022-07-29T02:06:07;101279.31;;;14.69;67.85
61645;BME280;47553;52.428;13.382;2022-07-29T02:08:11;101270.97;;;14.74;67.65
61645;BME280;47553;52.428;13.382;2022-07-29T02:10:16;101280.00;;;14.73;67.96
61645;BME280;47553;52.428;13.382;2022-07-29T02:12:28;101280.19;;;14.70;68.14
61645;BME280;47553;52.428;13.382;2022-07-29T02:14:34;101276.66;;;14.69;68.25
61645;BME280;47553;52.428;13.382;2022-07-29T02:16:37;101282.88;;;14.70;68.21
61645;BME280;47553;52.428;13.382;2022-07-29T02:18:44;101290.06;;;14.69;68.29
61645;BME280;47553;52.428;13.382;2022-07-29T02:20:48;101283.53;;;14.73;68.14
61645;BME280;47553;52.428;13.382;2022-07-29T02:22:52;101282.00;;;14.69;68.07
61645;BME280;47553;52.428;13.382;2022-07-29T02:24:55;101286.22;;;14.73;68.18
61645;BME280;47553;52.428;13.382;2022-07-29T02:26:58;101296.00;;;14.74;68.07
61645;BME280;47553;52.428;13.382;2022-07-29T02:29:02;101288.81;;;14.75;68.04
61645;BME280;47553;52.428;13.382;2022-07-29T02:31:04;101299.84;;;14.70;68.29
61645;BME280;47553;52.428;13.382;2022-07-29T02:33:07;101288.16;;;14.71;68.39
61645;BME280;47553;52.428;13.382;2022-07-29T02:35:13;101293.50;;;14.71;68.47
61645;BME280;47553;52.428;13.382;2022-07-29T02:37:15;101290.72;;;14.73;68.45
61645;BME280;47553;52.428;13.382;2022-07-29T02:39:18;101288.16;;;14.71;68.37
61645;BME280;47553;52.428;13.382;2022-07-29T02:41:24;101284.50;;;14.72;68.27
61645;BME280;47553;52.428;13.382;2022-07-29T02:43:32;101286.63;;;14.67;68.45
61645;BME280;47553;52.428;13.382;2022-07-29T02:45:35;101291.78;;;14.70;68.37
61645;BME280;47553;52.428;13.382;2022-07-29T02:47:40;101292.00;;;14.67;68.69
61645;BME280;47553;52.428;13.382;2022-07-29T02:49:48;101293.91;;;14.65;68.70
61645;BME280;47553;52.428;13.382;2022-07-29T02:51:57;101286.25;;;14.59;68.80
61645;BME280;47553;52.428;13.382;2022-07-29T02:54:01;101286.63;;;14.53;69.31
61645;BME280;47553;52.428;13.382;2022-07-29T02:56:08;101287.69;;;14.50;69.79
61645;BME280;47553;52.428;13.382;2022-07-29T02:58:15;101288.34;;;14.54;69.75
61645;BME280;47553;52.428;13.382;2022-07-29T03:00:21;101283.94;;;14.53;69.58
61645;BME280;47553;52.428;13.382;2022-07-29T03:02:25;101284.91;;;14.52;69.52
61645;BME280;47553;52.428;13.382;2022-07-29T03:04:30;101282.97;;;14.54;69.58
61645;BME280;47553;52.428;13.382;2022-07-29T03:06:33;101289.09;;;14.56;69.34
61645;BME280;47553;52.428;13.382;2022-07-29T03:08:41;101285.75;;;14.52;69.51
61645;BME280;47553;52.428;13.382;2022-07-29T03:10:44;101284.13;;;14.50;69.63
61645;BME280;47553;52.428;13.382;2022-07-29T03:12:47;101278.75;;;14.50;69.83
61645;BME280;47553;52.428;13.382;2022-07-29T03:14:50;101285.09;;;14.49;70.00
61645;BME280;47553;52.428;13.382;2022-07-29T03:16:52;101280.09;;;14.57;69.77
61645;BME280;47553;52.428;13.382;2022-07-29T03:18:54;101284.59;;;14.56;69.75
61645;BME280;47553;52.428;13.382;2022-07-29T03:20:57;101273.94;;;14.55;69.65
61645;BME280;47553;52.428;13.382;2022-07-29T03:22:59;101275.13;;;14.51;69.85
61645;BME280;47553;52.428;13.382;2022-07-29T03:25:09;101268.88;;;14.50;70.09
61645;BME280;47553;52.428;13.382;2022-07-29T03:27:10;101269.94;;;14.48;70.17
61645;BME280;47553;52.428;13.382;2022-07-29T03:29:12;101267.47;;;14.45;70.44
61645;BME280;47553;52.428;13.382;2022-07-29T03:31:14;101272.09;;;14.43;70.47
61645;BME280;47553;52.428;13.382;2022-07-29T03:33:15;101276.50;;;14.44;70.58
61645;BME280;47553;52.428;13.382;2022-07-29T03:35:17;101277.44;;;14.43;70.58
61645;BME280;47553;52.428;13.382;2022-07-29T03:37:19;101274.66;;;14.44;70.27
61645;BME280;47553;52.428;13.382;2022-07-29T03:39:24;101271.22;;;14.42;70.21
61645;BME280;47553;52.428;13.382;2022-07-29T03:41:29;101256.94;;;14.42;70.38
61645;BME280;47553;52.428;13.382;2022-07-29T03:43:35;101261.91;;;14.48;70.30
61645;BME280;47553;52.428;13.382;2022-07-29T03:45:37;101264.59;;;14.48;70.38
61645;BME280;47553;52.428;13.382;2022-07-29T03:47:43;101260.94;;;14.49;70.16
61645;BME280;47553;52.428;13.382;2022-07-29T03:49:54;101268.44;;;14.44;70.62
61645;BME280;47553;52.428;13.382;2022-07-29T03:51:58;101257.91;;;14.41;70.57
61645;BME280;47553;52.428;13.382;2022-07-29T03:54:00;101259.41;;;14.45;70.58
61645;BME280;47553;52.428;13.382;2022-07-29T03:56:10;101253.28;;;14.43;70.59
61645;BME280;47553;52.428;13.382;2022-07-29T03:58:18;101257.03;;;14.40;70.82
61645;BME280;47553;52.428;13.382;2022-07-29T04:00:20;101264.38;;;14.51;70.79
61645;BME280;47553;52.428;13.382;2022-07-29T04:02:23;101264.59;;;14.48;70.72
61645;BME280;47553;52.428;13.382;2022-07-29T04:04:32;101261.81;;;14.49;70.57
61645;BME280;47553;52.428;13.382;2022-07-29T04:06:40;101256.31;;;14.51;70.30
61645;BME280;47553;52.428;13.382;2022-07-29T04:08:43;101261.91;;;14.48;70.70
61645;BME280;47553;52.428;13.382;2022-07-29T04:10:44;101259.22;;;14.48;70.64
61645;BME280;47553;52.428;13.382;2022-07-29T04:12:46;101271.56;;;14.50;70.77
61645;BME280;47553;52.428;13.382;2022-07-29T04:14:49;101274.72;;;14.57;70.52
61645;BME280;47553;52.428;13.382;2022-07-29T04:16:50;101280.97;;;14.57;70.36
61645;BME280;47553;52.428;13.382;2022-07-29T04:18:52;101277.16;;;14.62;70.13
61645;BME280;47553;52.428;13.382;2022-07-29T04:20:53;101266.75;;;14.70;69.97
61645;BME280;47553;52.428;13.382;2022-07-29T04:22:55;101276.94;;;14.65;70.22
61645;BME280;47553;52.428;13.382;2022-07-29T04:24:57;101270.81;;;14.63;69.94
61645;BME280;47553;52.428;13.382;2022-07-29T04:27:04;101272.25;;;14.68;70.24
61645;BME280;47553;52.428;13.382;2022-07-29T04:29:06;101270.31;;;14.70;69.97
61645;BME280;47553;52.428;13.382;2022-07-29T04:31:09;101278.38;;;14.70;69.99
61645;BME280;47553;52.428;13.382;2022-07-29T04:33:11;101275.47;;;14.73;69.90
61645;BME280;47553;52.428;13.382;2022-07-29T04:35:12;101277.19;;;14.74;69.50
61645;BME280;47553;52.428;13.382;2022-07-29T04:37:14;101274.00;;;14.82;69.27
61645;BME280;47553;52.428;13.382;2022-07-29T04:39:15;101270.25;;;14.84;69.31
61645;BME280;47553;52.428;13.382;2022-07-29T04:41:23;101272.94;;;14.84;69.14
61645;BME280;47553;52.428;13.382;2022-07-29T04:43:34;101268.84;;;14.79;69.08
61645;BME280;47553;52.428;13.382;2022-07-29T04:45:37;101273.81;;;14.98;68.52
61645;BME280;47553;52.428;13.382;2022-07-29T04:47:40;101282.75;;;14.98;68.79
61645;BME280;47553;52.428;13.382;2022-07-29T04:49:42;101283.94;;;15.07;67.83
61645;BME280;47553;52.428;13.382;2022-07-29T04:51:43;101277.19;;;15.14;67.61
61645;BME280;47553;52.428;13.382;2022-07-29T04:53:45;101277.94;;;15.16;67.25
61645;BME280;47553;52.428;13.382;2022-07-29T04:55:46;101277.19;;;15.14;67.13
61645;BME280;47553;52.428;13.382;2022-07-29T04:57:48;101284.91;;;15.06;67.46
61645;BME280;47553;52.428;13.382;2022-07-29T04:59:49;101280.91;;;14.99;67.98
61645;BME280;47553;52.428;13.382;2022-07-29T05:01:51;101274.91;;;15.08;67.82
61645;BME280;47553;52.428;13.382;2022-07-29T05:03:54;101281.69;;;15.13;67.47
61645;BME280;47553;52.428;13.382;2022-07-29T05:06:00;101282.88;;;15.22;67.21
61645;BME280;47553;52.428;13.382;2022-07-29T05:08:02;101281.50;;;15.29;66.80
61645;BME280;47553;52.428;13.382;2022-07-29T05:10:05;101269.78;;;15.30;66.66
61645;BME280;47553;52.428;13.382;2022-07-29T05:12:07;101276.47;;;15.37;66.39
61645;BME280;47553;52.428;13.382;2022-07-29T05:14:08;101270.88;;;15.40;66.21
61645;BME280;47553;52.428;13.382;2022-07-29T05:16:10;101282.50;;;15.41;66.14
61645;BME280;47553;52.428;13.382;2022-07-29T05:18:12;101276.47;;;15.37;66.12
61645;BME280;47553;52.428;13.382;2022-07-29T05:20:15;101280.56;;;15.43;65.94
61645;BME280;47553;52.428;13.382;2022-07-29T05:22:17;101281.31;;;15.58;65.46
61645;BME280;47553;52.428;13.382;2022-07-29T05:24:18;101276.06;;;15.69;64.77
61645;BME280;47553;52.428;13.382;2022-07-29T05:26:20;101281.22;;;15.84;64.52
61645;BME280;47553;52.428;13.382;2022-07-29T05:28:22;101271.53;;;15.82;64.43
61645;BME280;47553;52.428;13.382;2022-07-29T05:30:24;101268.75;;;15.71;65.35
61645;BME280;47553;52.428;13.382;2022-07-29T05:32:25;101275.19;;;15.81;64.48
61645;BME280;47553;52.428;13.382;2022-07-29T05:34:27;101271.53;;;15.82;64.50
61645;BME280;47553;52.428;13.382;2022-07-29T05:36:30;101268.50;;;15.87;64.88
61645;BME280;47553;52.428;13.382;2022-07-29T05:38:31;101265.94;;;15.85;64.13
61645;BME280;47553;52.428;13.382;2022-07-29T05:40:33;101272.28;;;15.84;64.24
61645;BME280;47553;52.428;13.382;2022-07-29T05:42:34;101271.00;;;15.77;64.29
61645;BME280;47553;52.428;13.382;2022-07-29T05:44:36;101262.06;;;15.89;64.61
61645;BME280;47553;52.428;13.382;2022-07-29T05:46:38;101267.63;;;15.99;64.71
61645;BME280;47553;52.428;13.382;2022-07-29T05:48:40;101277.81;;;16.06;63.69
61645;BME280;47553;52.428;13.382;2022-07-29T05:50:41;101274.72;;;16.12;63.59
61645;BME280;47553;52.428;13.382;2022-07-29T05:52:46;101276.41;;;16.26;63.16
61645;BME280;47553;52.428;13.382;2022-07-29T05:54:50;101266.22;;;16.42;62.38
61645;BME280;47553;52.428;13.382;2022-07-29T05:56:51;101268.41;;;16.61;62.45
61645;BME280;47553;52.428;13.382;2022-07-29T05:58:53;101269.97;;;16.76;61.25
61645;BME280;47553;52.428;13.382;2022-07-29T06:00:54;101258.53;;;16.86;59.86
61645;BME280;47553;52.428;13.382;2022-07-29T06:02:56;101264.69;;;16.99;60.07
61645;BME280;47553;52.428;13.382;2022-07-29T06:04:57;101263.66;;;17.24;59.17
61645;BME280;47553;52.428;13.382;2022-07-29T06:06:59;101275.09;;;17.50;59.16
61645;BME280;47553;52.428;13.382;2022-07-29T06:09:03;101276.88;;;17.73;58.03
61645;BME280;47553;52.428;13.382;2022-07-29T06:11:13;101270.75;;;17.82;57.18
61645;BME280;47553;52.428;13.382;2022-07-29T06:13:14;101279.34;;;17.87;57.16
61645;BME280;47553;52.428;13.382;2022-07-29T06:15:16;101268.06;;;17.71;56.71
61645;BME280;47553;52.428;13.382;2022-07-29T06:17:18;101271.50;;;17.62;57.13
61645;BME280;47553;52.428;13.382;2022-07-29T06:19:19;101271.38;;;17.86;56.69
61645;BME280;47553;52.428;13.382;2022-07-29T06:21:21;101266.59;;;17.78;56.83
61645;BME280;47553;52.428;13.382;2022-07-29T06:23:22;101265.38;;;17.82;56.28
61645;BME280;47553;52.428;13.382;2022-07-29T06:25:26;101267.56;;;17.77;56.21
61645;BME280;47553;52.428;13.382;2022-07-29T06:27:27;101273.59;;;17.81;56.25
61645;BME280;47553;52.428;13.382;2022-07-29T06:29:29;101264.75;;;17.79;56.10
61645;BME280;47553;52.428;13.382;2022-07-29T06:31:30;101276.53;;;17.89;55.88
61645;BME280;47553;52.428;13.382;2022-07-29T06:33:32;101264.84;;;18.11;55.96
61645;BME280;47553;52.428;13.382;2022-07-29T06:35:33;101262.97;;;18.22;54.82
61645;BME280;47553;52.428;13.382;2022-07-29T06:37:42;101265.31;;;18.27;54.89
61645;BME280;47553;52.428;13.382;2022-07-29T06:39:46;101268.03;;;18.16;54.81
61645;BME280;47553;52.428;13.382;2022-07-29T06:41:49;101262.88;;;18.13;54.85
61645;BME280;47553;52.428;13.382;2022-07-29T06:43:51;101269.28;;;18.00;55.33
61645;BME280;47553;52.428;13.382;2022-07-29T06:45:59;101275.41;;;17.80;55.96
61645;BME280;47553;52.428;13.382;2022-07-29T06:48:00;101267.81;;;17.85;55.93
61645;BME280;47553;52.428;13.382;2022-07-29T06:50:02;101262.28;;;17.87;55.86
61645;BME280;47553;52.428;13.382;2022-07-29T06:52:08;101272.34;;;17.96;55.92
61645;BME280;47553;52.428;13.382;2022-07-29T06:54:09;101275.28;;;18.04;55.66
61645;BME280;47553;52.428;13.382;2022-07-29T06:56:11;101275.03;;;18.07;55.81
61645;BME280;47553;52.428;13.382;2022-07-29T06:58:14;101279.56;;;18.18;55.46
61645;BME280;47553;52.428;13.382;2022-07-29T07:00:16;101273.19;;;18.19;55.54
61645;BME280;47553;52.428;13.382;2022-07-29T07:02:17;101284.47;;;18.35;55.16
61645;BME280;47553;52.428;13.382;2022-07-29T07:04:19;101288.72;;;18.60;54.79
61645;BME280;47553;52.428;13.382;2022-07-29T07:06:21;101275.31;;;18.70;53.37
61645;BME280;47553;52.428;13.382;2022-07-29T07:08:23;101284.16;;;18.72;53.83
61645;BME280;47553;52.428;13.382;2022-07-29T07:10:25;101285.28;;;18.90;53.72
61645;BME280;47553;52.428;13.382;2022-07-29T07:12:26;101294.84;;;18.94;53.07
61645;BME280;47553;52.428;13.382;2022-07-29T07:14:29;101287.47;;;19.07;52.80
61645;BME280;47553;52.428;13.382;2022-07-29T07:16:31;101287.19;;;19.10;52.43
61645;BME280;47553;52.428;13.382;2022-07-29T07:18:33;101284.75;;;19.28;52.13
61645;BME280;47553;52.428;13.382;2022-07-29T07:20:35;101280.63;;;19.45;52.14
61645;BME280;47553;52.428;13.382;2022-07-29T07:22:37;101266.88;;;19.37;51.41
61645;BME280;47553;52.428;13.382;2022-07-29T07:24:39;101277.47;;;19.40;51.61
61645;BME280;47553;52.428;13.382;2022-07-29T07:26:41;101270.81;;;19.74;51.09
61645;BME280;47553;52.428;13.382;2022-07-29T07:28:42;101276.03;;;19.87;50.39
61645;BME280;47553;52.428;13.382;2022-07-29T07:30:45;101274.94;;;19.99;49.34
61645;BME280;47553;52.428;13.382;2022-07-29T07:32:47;101267.81;;;19.98;49.26
61645;BME280;47553;52.428;13.382;2022-07-29T07:34:49;101263.94;;;20.31;48.82
61645;BME280;47553;52.428;13.382;2022-07-29T07:36:50;101265.38;;;20.35;48.77
61645;BME280;47553;52.428;13.382;2022-07-29T07:38:52;101259.38;;;20.41;48.14
61645;BME280;47553;52.428;13.382;2022-07-29T07:40:53;101261.97;;;20.52;48.02
61645;BME280;47553;52.428;13.382;2022-07-29T07:42:55;101261.72;;;20.55;48.10
61645;BME280;47553;52.428;13.382;2022-07-29T07:44:57;101256.31;;;20.75;47.26
61645;BME280;47553;52.428;13.382;2022-07-29T07:49:18;101270.84;;;21.22;45.45
61645;BME280;47553;52.428;13.382;2022-07-29T07:51:20;101261.16;;;21.39;45.84
61645;BME280;47553;52.428;13.382;2022-07-29T07:53:21;101268.81;;;21.53;45.01
61645;BME280;47553;52.428;13.382;2022-07-29T07:55:23;101260.50;;;21.64;44.90
61645;BME280;47553;52.428;13.382;2022-07-29T07:57:25;101258.16;;;21.79;43.89
61645;BME280;47553;52.428;13.382;2022-07-29T07:59:26;101257.25;;;21.98;43.39
61645;BME280;47553;52.428;13.382;2022-07-29T08:01:28;101262.81;;;22.06;43.03
61645;BME280;47553;52.428;13.382;2022-07-29T08:03:49;101262.09;;;22.04;43.33
61645;BME280;47553;52.428;13.382;2022-07-29T08:05:51;101265.88;;;21.83;43.54
61645;BME280;47553;52.428;13.382;2022-07-29T08:07:53;101254.06;;;22.02;43.25
61645;BME280;47553;52.428;13.382;2022-07-29T08:09:54;101260.09;;;22.06;42.52
61645;BME280;47553;52.428;13.382;2022-07-29T08:11:56;101258.69;;;21.92;42.81
61645;BME280;47553;52.428;13.382;2022-07-29T08:13:58;101258.16;;;21.89;42.91
61645;BME280;47553;52.428;13.382;2022-07-29T08:16:00;101255.50;;;22.06;42.78
61645;BME280;47553;52.428;13.382;2022-07-29T08:18:02;101257.03;;;22.36;41.88
61645;BME280;47553;52.428;13.382;2022-07-29T08:20:10;101254.19;;;22.38;41.45
61645;BME280;47553;52.428;13.382;2022-07-29T08:22:12;101259.97;;;22.25;42.15
61645;BME280;47553;52.428;13.382;2022-07-29T08:24:13;101253.81;;;22.51;41.29
61645;BME280;47553;52.428;13.382;2022-07-29T08:26:15;101244.75;;;22.77;41.82
61645;BME280;47553;52.428;13.382;2022-07-29T08:28:17;101252.94;;;22.95;40.79
61645;BME280;47553;52.428;13.382;2022-07-29T08:30:18;101244.75;;;22.60;40.20
61645;BME280;47553;52.428;13.382;2022-07-29T08:32:20;101243.75;;;22.61;40.78
61645;BME280;47553;52.428;13.382;2022-07-29T08:34:41;101243.25;;;22.48;41.16
61645;BME280;47553;52.428;13.382;2022-07-29T08:36:44;101242.34;;;22.57;41.37
61645;BME280;47553;52.428;13.382;2022-07-29T08:38:51;101237.44;;;22.78;40.53
61645;BME280;47553;52.428;13.382;2022-07-29T08:40:53;101241.66;;;22.90;40.84
61645;BME280;47553;52.428;13.382;2022-07-29T08:42:55;101242.91;;;22.96;39.86
61645;BME280;47553;52.428;13.382;2022-07-29T08:44:57;101242.19;;;22.94;40.17
61645;BME280;47553;52.428;13.382;2022-07-29T08:46:59;101240.75;;;22.82;39.91
61645;BME280;47553;52.428;13.382;2022-07-29T08:49:01;101240.41;;;22.67;40.46
61645;BME280;47553;52.428;13.382;2022-07-29T08:51:03;101233.75;;;22.52;41.36
61645;BME280;47553;52.428;13.382;2022-07-29T08:53:11;101243.94;;;22.50;41.22
61645;BME280;47553;52.428;13.382;2022-07-29T08:55:15;101234.38;;;22.28;41.69
61645;BME280;47553;52.428;13.382;2022-07-29T08:57:21;101239.25;;;22.24;42.31
61645;BME280;47553;52.428;13.382;2022-07-29T08:59:25;101236.13;;;22.19;42.64
61645;BME280;47553;52.428;13.382;2022-07-29T09:01:29;101240.88;;;22.17;42.06
61645;BME280;47553;52.428;13.382;2022-07-29T09:03:43;101235.63;;;22.33;41.86
61645;BME280;47553;52.428;13.382;2022-07-29T09:05:46;101238.66;;;22.48;41.16
61645;BME280;47553;52.428;13.382;2022-07-29T09:07:49;101233.97;;;22.68;40.66
61645;BME280;47553;52.428;13.382;2022-07-29T09:09:52;101238.63;;;22.93;40.65
61645;BME280;47553;52.428;13.382;2022-07-29T09:11:56;101237.31;;;23.23;39.88
61645;BME280;47553;52.428;13.382;2022-07-29T09:13:59;101233.25;;;23.45;39.17
61645;BME280;47553;52.428;13.382;2022-07-29T09:16:00;101243.34;;;23.79;38.89
61645;BME280;47553;52.428;13.382;2022-07-29T09:18:09;101231.03;;;24.00;37.79
61645;BME280;47553;52.428;13.382;2022-07-29T09:20:30;101243.53;;;24.19;37.62
61645;BME280;47553;52.428;13.382;2022-07-29T09:22:32;101233.53;;;23.94;37.50
61645;BME280;47553;52.428;13.382;2022-07-29T09:24:39;101229.78;;;23.95;37.30
61645;BME280;47553;52.428;13.382;2022-07-29T09:26:45;101228.34;;;24.09;37.43
61645;BME280;47553;52.428;13.382;2022-07-29T09:28:47;101226.84;;;24.22;37.53
61645;BME280;47553;52.428;13.382;2022-07-29T09:30:53;101223.41;;;24.12;36.10
61645;BME280;47553;52.428;13.382;2022-07-29T09:32:55;101225.13;;;24.21;36.41
61645;BME280;47553;52.428;13.382;2022-07-29T09:35:17;101221.28;;;24.40;36.74
61645;BME280;47553;52.428;13.382;2022-07-29T09:37:28;101228.59;;;24.31;36.33
61645;BME280;47553;52.428;13.382;2022-07-29T09:39:32;101219.75;;;24.38;36.25
61645;BME280;47553;52.428;13.382;2022-07-29T09:41:47;101222.25;;;24.23;35.26
61645;BME280;47553;52.428;13.382;2022-07-29T09:43:53;101213.59;;;24.27;34.90
61645;BME280;47553;52.428;13.382;2022-07-29T09:45:55;101211.91;;;24.43;34.66
61645;BME280;47553;52.428;13.382;2022-07-29T09:47:57;101209.88;;;24.45;35.25
61645;BME280;47553;52.428;13.382;2022-07-29T09:49:59;101202.16;;;24.24;34.54
61645;BME280;47553;52.428;13.382;2022-07-29T09:52:04;101200.31;;;24.32;34.26
61645;BME280;47553;52.428;13.382;2022-07-29T09:54:22;101204.25;;;24.38;34.18
61645;BME280;47553;52.428;13.382;2022-07-29T09:56:38;101213.88;;;24.16;33.89
61645;BME280;47553;52.428;13.382;2022-07-29T09:58:41;101211.81;;;24.10;33.23
61645;BME280;47553;52.428;13.382;2022-07-29T10:00:44;101206.56;;;24.17;32.59
61645;BME280;47553;52.428;13.382;2022-07-29T10:02:46;101203.06;;;24.41;32.63
61645;BME280;47553;52.428;13.382;2022-07-29T10:04:48;101202.56;;;24.61;31.77
61645;BME280;47553;52.428;13.382;2022-07-29T10:06:58;101200.22;;;24.67;32.35
61645;BME280;47553;52.428;13.382;2022-07-29T10:09:09;101192.03;;;24.67;32.32
61645;BME280;47553;52.428;13.382;2022-07-29T10:11:12;101195.97;;;24.72;31.44
61645;BME280;47553;52.428;13.382;2022-07-29T10:13:14;101202.59;;;24.70;32.19
61645;BME280;47553;52.428;13.382;2022-07-29T10:15:18;101189.44;;;24.65;32.14
61645;BME280;47553;52.428;13.382;2022-07-29T10:17:20;101190.16;;;24.75;31.67
61645;BME280;47553;52.428;13.382;2022-07-29T10:19:22;101190.69;;;24.79;31.91
61645;BME280;47553;52.428;13.382;2022-07-29T10:21:25;101202.41;;;24.55;31.55
61645;BME280;47553;52.428;13.382;2022-07-29T10:23:37;101191.81;;;24.52;32.38
61645;BME280;47553;52.428;13.382;2022-07-29T10:25:47;101193.53;;;24.61;32.53
61645;BME280;47553;52.428;13.382;2022-07-29T10:27:49;101194.22;;;24.55;32.22
61645;BME280;47553;52.428;13.382;2022-07-29T10:29:51;101195.59;;;24.59;32.46
61645;BME280;47553;52.428;13.382;2022-07-29T10:32:06;101189.28;;;24.50;32.18
61645;BME280;47553;52.428;13.382;2022-07-29T10:34:15;101204.66;;;24.68;32.38
61645;BME280;47553;52.428;13.382;2022-07-29T10:36:38;101196.47;;;24.92;32.04
61645;BME280;47553;52.428;13.382;2022-07-29T10:38:48;101201.25;;;25.14;31.44
61645;BME280;47553;52.428;13.382;2022-07-29T10:41:00;101196.97;;;25.28;31.44
61645;BME280;47553;52.428;13.382;2022-07-29T10:43:16;101203.97;;;25.22;30.89